Terminal Aerodrome Forecast
Issued by NWS Cleveland, OH

Home | Current Version | Previous Version | Text Only | Print | Product List | Glossary On
Versions: 1 2 3 4 5 6 7 8 9 10 11 12 13 14 15 16
000
FTUS41 KCLE 302335
TAFERI
TAF
KERI 302335Z 3100/3124 35006KT P6SM BKN250
     FM310200 19005KT P6SM BKN250
     FM311000 24005KT P6SM VCSH BKN050 OVC100
     FM311400 24005KT 4SM -SHRA OVC025=

USA.gov is the U.S. government's official web portal to all federal, state and local government web resources and services.